This is the latest recevied weather packets stored in our database for station/object S50APT-10. If no packets are shown the sender has not sent any weather packets the latest 10 day(s).
| Time | Temp. | Humidity | Pressure | Rain* | Wind** | Luminosity | Snow |
|---|---|---|---|---|---|---|---|
| 1777704189 | 22.22° C | 34% | 1027.3 hPa | - | - | - | - |
| 1777703288 | 19.44° C | 39% | 1027.1 hPa | - | - | - | - |
| 1777702387 | 17.78° C | 42% | 1027.2 hPa | - | - | - | - |
| 1777701486 | 16.67° C | 44% | 1027.1 hPa | - | - | - | - |
| 1777700586 | 15° C | 45% | 1027.2 hPa | - | - | - | - |
| 1777699686 | 11.67° C | 53% | 1027.2 hPa | - | - | - | - |
| 1777698786 | 10° C | 58% | 1027.2 hPa | - | - | - | - |
| 1777697885 | 9.44° C | 59% | 1027 hPa | - | - | - | - |
| 1777696984 | 8.89° C | 60% | 1027.1 hPa | - | - | - | - |
| 1777696084 | 9.44° C | 58% | 1026.9 hPa | - | - | - | - |
| 1777695183 | 8.89° C | 59% | 1026.9 hPa | - | - | - | - |
| 1777694282 | 8.89° C | 60% | 1026.8 hPa | - | - | - | - |
| 1777693381 | 8.33° C | 60% | 1026.8 hPa | - | - | - | - |
| 1777692480 | 8.33° C | 61% | 1026.8 hPa | - | - | - | - |
| 1777691580 | 8.33° C | 61% | 1026.8 hPa | - | - | - | - |
| 1777690680 | 8.33° C | 60% | 1026.9 hPa | - | - | - | - |
| 1777689776 | 8.89° C | 58% | 1027 hPa | - | - | - | - |
| 1777688875 | 9.44° C | 57% | 1027 hPa | - | - | - | - |
| 1777687975 | 9.44° C | 57% | 1027.2 hPa | - | - | - | - |
| 1777687110 | 8.89° C | 59% | 1027.2 hPa | - | - | - | - |
| 1777687075 | 8.89° C | 59% | 1027.2 hPa | - | - | - | - |
| 1777686174 | 8.89° C | 60% | 1027.2 hPa | - | - | - | - |
| 1777685273 | 8.89° C | 60% | 1027.2 hPa | - | - | - | - |
| 1777684372 | 8.33° C | 60% | 1027.2 hPa | - | - | - | - |
| 1777683471 | 8.33° C | 61% | 1027.3 hPa | - | - | - | - |
* Rain since midnight (hover to see other rain measurements)
** Current wind speed in m/s (hover to see current wind gust speed)